sensor_id;sensor_type;location;lat;lon;timestamp;temperature;humidity
16767;DHT22;8501;49.926;8.404;2023-03-20T00:01:14;10.50;99.90
16767;DHT22;8501;49.926;8.404;2023-03-20T00:06:59;10.40;99.90
16767;DHT22;8501;49.926;8.404;2023-03-20T00:09:25;10.30;99.90
16767;DHT22;8501;49.926;8.404;2023-03-20T00:11:53;10.30;99.90
16767;DHT22;8501;49.926;8.404;2023-03-20T00:14:20;10.20;99.90
16767;DHT22;8501;49.926;8.404;2023-03-20T00:16:48;10.20;99.90
16767;DHT22;8501;49.926;8.404;2023-03-20T00:19:21;10.20;99.90
16767;DHT22;8501;49.926;8.404;2023-03-20T00:21:56;10.10;99.90
16767;DHT22;8501;49.926;8.404;2023-03-20T00:24:22;10.10;99.90
16767;DHT22;8501;49.926;8.404;2023-03-20T00:26:49;10.20;99.90
16767;DHT22;8501;49.926;8.404;2023-03-20T00:29:24;10.20;99.90
16767;DHT22;8501;49.926;8.404;2023-03-20T00:31:51;10.20;99.90
16767;DHT22;8501;49.926;8.404;2023-03-20T00:34:19;10.20;99.90
16767;DHT22;8501;49.926;8.404;2023-03-20T00:36:45;10.20;99.90
16767;DHT22;8501;49.926;8.404;2023-03-20T00:39:11;10.20;99.90
16767;DHT22;8501;49.926;8.404;2023-03-20T00:41:43;10.10;99.90
16767;DHT22;8501;49.926;8.404;2023-03-20T00:44:36;10.10;99.90
16767;DHT22;8501;49.926;8.404;2023-03-20T00:47:15;10.10;99.90
16767;DHT22;8501;49.926;8.404;2023-03-20T00:49:41;10.20;99.90
16767;DHT22;8501;49.926;8.404;2023-03-20T00:52:09;10.20;99.90
16767;DHT22;8501;49.926;8.404;2023-03-20T00:54:37;10.20;99.90
16767;DHT22;8501;49.926;8.404;2023-03-20T00:57:37;10.20;99.90
16767;DHT22;8501;49.926;8.404;2023-03-20T01:00:21;10.10;99.90
16767;DHT22;8501;49.926;8.404;2023-03-20T01:02:48;10.10;99.90
16767;DHT22;8501;49.926;8.404;2023-03-20T01:05:14;10.10;99.90
16767;DHT22;8501;49.926;8.404;2023-03-20T01:07:40;10.10;99.90
16767;DHT22;8501;49.926;8.404;2023-03-20T01:10:06;10.10;99.90
16767;DHT22;8501;49.926;8.404;2023-03-20T01:12:32;10.10;99.90
16767;DHT22;8501;49.926;8.404;2023-03-20T01:14:58;10.10;99.90
16767;DHT22;8501;49.926;8.404;2023-03-20T01:17:25;10.00;99.90
16767;DHT22;8501;49.926;8.404;2023-03-20T01:19:51;10.10;99.90
16767;DHT22;8501;49.926;8.404;2023-03-20T01:22:17;10.00;99.90
16767;DHT22;8501;49.926;8.404;2023-03-20T01:24:43;10.00;99.90
16767;DHT22;8501;49.926;8.404;2023-03-20T01:27:16;10.00;99.90
16767;DHT22;8501;49.926;8.404;2023-03-20T01:29:42;10.00;99.90
16767;DHT22;8501;49.926;8.404;2023-03-20T01:32:11;9.90;99.90
16767;DHT22;8501;49.926;8.404;2023-03-20T01:34:37;10.00;99.90
16767;DHT22;8501;49.926;8.404;2023-03-20T01:37:04;10.10;99.90
16767;DHT22;8501;49.926;8.404;2023-03-20T01:39:33;9.90;99.90
16767;DHT22;8501;49.926;8.404;2023-03-20T01:42:01;10.00;99.90
16767;DHT22;8501;49.926;8.404;2023-03-20T01:44:29;10.00;99.90
16767;DHT22;8501;49.926;8.404;2023-03-20T01:46:55;10.00;99.90
16767;DHT22;8501;49.926;8.404;2023-03-20T01:51:48;10.00;99.90
16767;DHT22;8501;49.926;8.404;2023-03-20T01:54:17;10.00;99.90
16767;DHT22;8501;49.926;8.404;2023-03-20T01:59:35;9.90;99.90
16767;DHT22;8501;49.926;8.404;2023-03-20T02:02:01;9.90;99.90
16767;DHT22;8501;49.926;8.404;2023-03-20T02:04:33;9.90;99.90
16767;DHT22;8501;49.926;8.404;2023-03-20T02:07:02;10.00;99.90
16767;DHT22;8501;49.926;8.404;2023-03-20T02:09:28;9.90;99.90
16767;DHT22;8501;49.926;8.404;2023-03-20T02:11:55;9.90;99.90
16767;DHT22;8501;49.926;8.404;2023-03-20T02:14:21;9.90;99.90
16767;DHT22;8501;49.926;8.404;2023-03-20T02:16:47;9.90;99.90
16767;DHT22;8501;49.926;8.404;2023-03-20T02:19:23;9.90;99.90
16767;DHT22;8501;49.926;8.404;2023-03-20T02:22:14;9.90;99.90
16767;DHT22;8501;49.926;8.404;2023-03-20T02:30:30;9.80;99.90
16767;DHT22;8501;49.926;8.404;2023-03-20T02:33:32;9.90;99.90
16767;DHT22;8501;49.926;8.404;2023-03-20T02:41:48;9.80;99.90
16767;DHT22;8501;49.926;8.404;2023-03-20T02:44:42;9.80;99.90
16767;DHT22;8501;49.926;8.404;2023-03-20T02:49:52;9.80;99.90
16767;DHT22;8501;49.926;8.404;2023-03-20T03:00:33;9.90;99.90
16767;DHT22;8501;49.926;8.404;2023-03-20T03:03:23;9.90;99.90
16767;DHT22;8501;49.926;8.404;2023-03-20T03:06:07;9.90;99.90
16767;DHT22;8501;49.926;8.404;2023-03-20T03:08:39;9.90;99.90
16767;DHT22;8501;49.926;8.404;2023-03-20T03:11:08;9.80;99.90
16767;DHT22;8501;49.926;8.404;2023-03-20T03:13:37;9.80;99.90
16767;DHT22;8501;49.926;8.404;2023-03-20T03:16:26;9.80;99.90
16767;DHT22;8501;49.926;8.404;2023-03-20T03:19:20;9.80;99.90
16767;DHT22;8501;49.926;8.404;2023-03-20T03:21:48;9.80;99.90
16767;DHT22;8501;49.926;8.404;2023-03-20T03:24:31;9.70;99.90
16767;DHT22;8501;49.926;8.404;2023-03-20T03:26:58;9.80;99.90
16767;DHT22;8501;49.926;8.404;2023-03-20T03:29:29;9.80;99.90
16767;DHT22;8501;49.926;8.404;2023-03-20T03:31:56;9.90;99.90
16767;DHT22;8501;49.926;8.404;2023-03-20T03:34:22;9.80;99.90
16767;DHT22;8501;49.926;8.404;2023-03-20T03:37:06;9.80;99.90
16767;DHT22;8501;49.926;8.404;2023-03-20T03:39:40;9.90;99.90
16767;DHT22;8501;49.926;8.404;2023-03-20T03:45:29;9.80;99.90
16767;DHT22;8501;49.926;8.404;2023-03-20T03:48:12;9.80;99.90
16767;DHT22;8501;49.926;8.404;2023-03-20T03:50:42;9.80;99.90
16767;DHT22;8501;49.926;8.404;2023-03-20T03:53:16;9.90;99.90
16767;DHT22;8501;49.926;8.404;2023-03-20T03:55:52;9.80;99.90
16767;DHT22;8501;49.926;8.404;2023-03-20T03:58:27;9.80;99.90
16767;DHT22;8501;49.926;8.404;2023-03-20T04:00:54;9.80;99.90
16767;DHT22;8501;49.926;8.404;2023-03-20T04:03:26;9.90;99.90
16767;DHT22;8501;49.926;8.404;2023-03-20T04:05:54;10.00;99.90
16767;DHT22;8501;49.926;8.404;2023-03-20T04:08:21;9.90;99.90
16767;DHT22;8501;49.926;8.404;2023-03-20T04:10:47;10.00;99.90
16767;DHT22;8501;49.926;8.404;2023-03-20T04:13:12;10.00;99.90
16767;DHT22;8501;49.926;8.404;2023-03-20T04:15:38;10.00;99.90
16767;DHT22;8501;49.926;8.404;2023-03-20T04:18:04;10.00;99.90
16767;DHT22;8501;49.926;8.404;2023-03-20T04:20:30;9.90;99.90
16767;DHT22;8501;49.926;8.404;2023-03-20T04:22:55;9.90;99.90
16767;DHT22;8501;49.926;8.404;2023-03-20T04:25:23;9.80;99.90
16767;DHT22;8501;49.926;8.404;2023-03-20T04:27:50;9.90;99.90
16767;DHT22;8501;49.926;8.404;2023-03-20T04:30:17;9.90;99.90
16767;DHT22;8501;49.926;8.404;2023-03-20T04:32:42;9.80;99.90
16767;DHT22;8501;49.926;8.404;2023-03-20T04:35:08;9.90;99.90
16767;DHT22;8501;49.926;8.404;2023-03-20T04:37:34;9.90;99.90
16767;DHT22;8501;49.926;8.404;2023-03-20T04:39:59;10.00;99.90
16767;DHT22;8501;49.926;8.404;2023-03-20T04:42:25;9.90;99.90
16767;DHT22;8501;49.926;8.404;2023-03-20T04:44:51;9.90;99.90
16767;DHT22;8501;49.926;8.404;2023-03-20T04:47:16;9.90;99.90
16767;DHT22;8501;49.926;8.404;2023-03-20T04:49:42;9.90;99.90
16767;DHT22;8501;49.926;8.404;2023-03-20T04:52:07;9.90;99.90
16767;DHT22;8501;49.926;8.404;2023-03-20T04:54:33;9.90;99.90
16767;DHT22;8501;49.926;8.404;2023-03-20T04:56:59;9.80;99.90
16767;DHT22;8501;49.926;8.404;2023-03-20T04:59:25;9.90;99.90
16767;DHT22;8501;49.926;8.404;2023-03-20T05:01:50;9.90;99.90
16767;DHT22;8501;49.926;8.404;2023-03-20T05:04:16;9.90;99.90
16767;DHT22;8501;49.926;8.404;2023-03-20T05:06:41;9.80;99.90
16767;DHT22;8501;49.926;8.404;2023-03-20T05:09:08;9.90;99.90
16767;DHT22;8501;49.926;8.404;2023-03-20T05:11:34;9.90;99.90
16767;DHT22;8501;49.926;8.404;2023-03-20T05:14:00;10.00;99.90
16767;DHT22;8501;49.926;8.404;2023-03-20T05:16:25;9.80;99.90
16767;DHT22;8501;49.926;8.404;2023-03-20T05:18:51;9.90;99.90
16767;DHT22;8501;49.926;8.404;2023-03-20T05:21:16;9.90;99.90
16767;DHT22;8501;49.926;8.404;2023-03-20T05:23:42;10.00;99.90
16767;DHT22;8501;49.926;8.404;2023-03-20T05:26:08;9.90;99.90
16767;DHT22;8501;49.926;8.404;2023-03-20T05:28:33;9.90;99.90
16767;DHT22;8501;49.926;8.404;2023-03-20T05:30:59;9.90;99.90
16767;DHT22;8501;49.926;8.404;2023-03-20T05:33:24;9.80;99.90
16767;DHT22;8501;49.926;8.404;2023-03-20T05:35:50;9.90;99.90
16767;DHT22;8501;49.926;8.404;2023-03-20T05:38:16;9.90;99.90
16767;DHT22;8501;49.926;8.404;2023-03-20T05:40:41;9.90;99.90
16767;DHT22;8501;49.926;8.404;2023-03-20T05:43:08;9.90;99.90
16767;DHT22;8501;49.926;8.404;2023-03-20T05:45:34;9.90;99.90
16767;DHT22;8501;49.926;8.404;2023-03-20T05:47:59;9.90;99.90
16767;DHT22;8501;49.926;8.404;2023-03-20T05:50:25;9.90;99.90
16767;DHT22;8501;49.926;8.404;2023-03-20T05:52:51;9.90;99.90
16767;DHT22;8501;49.926;8.404;2023-03-20T05:55:16;9.90;99.90
16767;DHT22;8501;49.926;8.404;2023-03-20T05:57:42;9.90;99.90
16767;DHT22;8501;49.926;8.404;2023-03-20T06:00:08;9.90;99.90
16767;DHT22;8501;49.926;8.404;2023-03-20T06:02:37;9.90;99.90
16767;DHT22;8501;49.926;8.404;2023-03-20T06:05:03;9.90;99.90
16767;DHT22;8501;49.926;8.404;2023-03-20T06:07:29;9.90;99.90
16767;DHT22;8501;49.926;8.404;2023-03-20T06:09:54;9.90;99.90
16767;DHT22;8501;49.926;8.404;2023-03-20T06:12:20;9.90;99.90
16767;DHT22;8501;49.926;8.404;2023-03-20T06:14:46;9.90;99.90
16767;DHT22;8501;49.926;8.404;2023-03-20T06:17:12;9.90;99.90
16767;DHT22;8501;49.926;8.404;2023-03-20T06:19:37;9.90;99.90
16767;DHT22;8501;49.926;8.404;2023-03-20T06:22:03;9.90;99.90
16767;DHT22;8501;49.926;8.404;2023-03-20T06:24:29;9.90;99.90
16767;DHT22;8501;49.926;8.404;2023-03-20T06:26:54;9.90;99.90
16767;DHT22;8501;49.926;8.404;2023-03-20T06:29:20;10.00;99.90
16767;DHT22;8501;49.926;8.404;2023-03-20T06:31:46;9.90;99.90
16767;DHT22;8501;49.926;8.404;2023-03-20T06:34:12;9.90;99.90
16767;DHT22;8501;49.926;8.404;2023-03-20T06:36:38;9.90;99.90
16767;DHT22;8501;49.926;8.404;2023-03-20T06:39:04;10.00;99.90
16767;DHT22;8501;49.926;8.404;2023-03-20T06:41:29;10.00;99.90
16767;DHT22;8501;49.926;8.404;2023-03-20T06:43:55;10.00;99.90
16767;DHT22;8501;49.926;8.404;2023-03-20T06:46:21;9.90;99.90
16767;DHT22;8501;49.926;8.404;2023-03-20T06:48:47;9.90;99.90
16767;DHT22;8501;49.926;8.404;2023-03-20T06:51:13;10.00;99.90
16767;DHT22;8501;49.926;8.404;2023-03-20T06:53:39;10.00;99.90
16767;DHT22;8501;49.926;8.404;2023-03-20T06:56:06;9.90;99.90
16767;DHT22;8501;49.926;8.404;2023-03-20T06:58:32;9.90;99.90
16767;DHT22;8501;49.926;8.404;2023-03-20T07:00:58;10.00;99.90
16767;DHT22;8501;49.926;8.404;2023-03-20T07:03:23;10.00;99.90
16767;DHT22;8501;49.926;8.404;2023-03-20T07:05:49;10.00;99.90
16767;DHT22;8501;49.926;8.404;2023-03-20T07:08:15;10.00;99.90
16767;DHT22;8501;49.926;8.404;2023-03-20T07:10:41;10.10;99.90
16767;DHT22;8501;49.926;8.404;2023-03-20T07:13:07;10.10;99.90
16767;DHT22;8501;49.926;8.404;2023-03-20T07:15:34;10.20;99.90
16767;DHT22;8501;49.926;8.404;2023-03-20T07:18:00;10.20;99.90
16767;DHT22;8501;49.926;8.404;2023-03-20T07:20:26;10.20;99.90
16767;DHT22;8501;49.926;8.404;2023-03-20T07:22:52;10.20;99.90
16767;DHT22;8501;49.926;8.404;2023-03-20T07:25:18;10.20;99.90
16767;DHT22;8501;49.926;8.404;2023-03-20T07:27:43;10.20;99.90
16767;DHT22;8501;49.926;8.404;2023-03-20T07:30:15;10.20;99.90
16767;DHT22;8501;49.926;8.404;2023-03-20T07:32:41;10.20;99.90
16767;DHT22;8501;49.926;8.404;2023-03-20T07:35:07;10.20;99.90
16767;DHT22;8501;49.926;8.404;2023-03-20T07:37:33;10.20;99.90
16767;DHT22;8501;49.926;8.404;2023-03-20T07:39:59;10.20;99.90
16767;DHT22;8501;49.926;8.404;2023-03-20T07:42:24;10.20;99.90
16767;DHT22;8501;49.926;8.404;2023-03-20T07:44:50;10.20;99.90
16767;DHT22;8501;49.926;8.404;2023-03-20T07:47:16;10.20;99.90
16767;DHT22;8501;49.926;8.404;2023-03-20T07:49:41;10.20;99.90
16767;DHT22;8501;49.926;8.404;2023-03-20T07:52:07;10.20;99.90
16767;DHT22;8501;49.926;8.404;2023-03-20T07:54:32;10.20;99.90
16767;DHT22;8501;49.926;8.404;2023-03-20T07:56:58;10.20;99.90
16767;DHT22;8501;49.926;8.404;2023-03-20T07:59:24;10.20;99.90
16767;DHT22;8501;49.926;8.404;2023-03-20T08:01:50;10.30;99.90
16767;DHT22;8501;49.926;8.404;2023-03-20T08:04:16;10.20;99.90
16767;DHT22;8501;49.926;8.404;2023-03-20T08:06:44;10.20;99.90
16767;DHT22;8501;49.926;8.404;2023-03-20T08:09:09;10.20;99.90
16767;DHT22;8501;49.926;8.404;2023-03-20T08:11:35;10.20;99.90
16767;DHT22;8501;49.926;8.404;2023-03-20T08:14:01;10.20;99.90
16767;DHT22;8501;49.926;8.404;2023-03-20T08:16:26;10.30;99.90
16767;DHT22;8501;49.926;8.404;2023-03-20T08:18:52;10.30;99.90
16767;DHT22;8501;49.926;8.404;2023-03-20T08:21:20;10.30;99.90
16767;DHT22;8501;49.926;8.404;2023-03-20T08:23:46;10.20;99.90
16767;DHT22;8501;49.926;8.404;2023-03-20T08:26:12;10.30;99.90
16767;DHT22;8501;49.926;8.404;2023-03-20T08:28:37;10.30;99.90
16767;DHT22;8501;49.926;8.404;2023-03-20T08:31:07;10.30;99.90
16767;DHT22;8501;49.926;8.404;2023-03-20T08:33:32;10.30;99.90
16767;DHT22;8501;49.926;8.404;2023-03-20T08:35:58;10.30;99.90
16767;DHT22;8501;49.926;8.404;2023-03-20T08:38:24;10.30;99.90
16767;DHT22;8501;49.926;8.404;2023-03-20T08:40:50;10.30;99.90
16767;DHT22;8501;49.926;8.404;2023-03-20T08:43:16;10.40;99.90
16767;DHT22;8501;49.926;8.404;2023-03-20T08:45:42;10.30;99.90
16767;DHT22;8501;49.926;8.404;2023-03-20T08:48:08;10.30;99.90
16767;DHT22;8501;49.926;8.404;2023-03-20T08:50:34;10.30;99.90
16767;DHT22;8501;49.926;8.404;2023-03-20T08:53:00;10.40;99.90
16767;DHT22;8501;49.926;8.404;2023-03-20T08:55:25;10.40;99.90
16767;DHT22;8501;49.926;8.404;2023-03-20T08:57:51;10.40;99.90
16767;DHT22;8501;49.926;8.404;2023-03-20T09:00:18;10.40;99.90
16767;DHT22;8501;49.926;8.404;2023-03-20T09:02:44;10.40;99.90
16767;DHT22;8501;49.926;8.404;2023-03-20T09:05:10;10.40;99.90
16767;DHT22;8501;49.926;8.404;2023-03-20T09:07:36;10.40;99.90
16767;DHT22;8501;49.926;8.404;2023-03-20T09:10:03;10.40;99.90
16767;DHT22;8501;49.926;8.404;2023-03-20T09:12:29;10.50;99.90
16767;DHT22;8501;49.926;8.404;2023-03-20T09:14:57;10.50;99.90
16767;DHT22;8501;49.926;8.404;2023-03-20T09:17:23;10.50;99.90
16767;DHT22;8501;49.926;8.404;2023-03-20T09:19:49;10.40;99.90
16767;DHT22;8501;49.926;8.404;2023-03-20T09:22:15;10.70;99.90
16767;DHT22;8501;49.926;8.404;2023-03-20T09:24:42;10.70;99.90
16767;DHT22;8501;49.926;8.404;2023-03-20T09:27:08;10.70;99.90
16767;DHT22;8501;49.926;8.404;2023-03-20T09:29:34;10.80;99.90
16767;DHT22;8501;49.926;8.404;2023-03-20T09:32:00;10.80;99.90
16767;DHT22;8501;49.926;8.404;2023-03-20T09:34:26;10.90;99.90
16767;DHT22;8501;49.926;8.404;2023-03-20T09:36:51;11.00;99.90
16767;DHT22;8501;49.926;8.404;2023-03-20T09:39:17;11.00;99.90
16767;DHT22;8501;49.926;8.404;2023-03-20T09:41:47;11.00;99.90
16767;DHT22;8501;49.926;8.404;2023-03-20T09:55:34;11.50;99.90
16767;DHT22;8501;49.926;8.404;2023-03-20T10:00:36;11.60;99.90
16767;DHT22;8501;49.926;8.404;2023-03-20T10:03:13;11.60;99.90
16767;DHT22;8501;49.926;8.404;2023-03-20T10:06:01;11.60;99.90
16767;DHT22;8501;49.926;8.404;2023-03-20T10:08:34;11.60;99.90
16767;DHT22;8501;49.926;8.404;2023-03-20T10:16:18;11.60;99.90
16767;DHT22;8501;49.926;8.404;2023-03-20T10:19:43;11.60;99.90
16767;DHT22;8501;49.926;8.404;2023-03-20T10:21:56;11.60;99.90
16767;DHT22;8501;49.926;8.404;2023-03-20T10:27:30;11.70;99.90
16767;DHT22;8501;49.926;8.404;2023-03-20T10:33:17;11.80;99.90
16767;DHT22;8501;49.926;8.404;2023-03-20T10:41:17;11.90;99.90
16767;DHT22;8501;49.926;8.404;2023-03-20T10:43:46;11.90;99.90
16767;DHT22;8501;49.926;8.404;2023-03-20T10:46:17;11.90;99.90
16767;DHT22;8501;49.926;8.404;2023-03-20T10:49:14;11.90;99.90
16767;DHT22;8501;49.926;8.404;2023-03-20T10:51:51;11.90;99.90
16767;DHT22;8501;49.926;8.404;2023-03-20T10:54:25;11.90;99.90
16767;DHT22;8501;49.926;8.404;2023-03-20T10:56:54;11.90;99.90
16767;DHT22;8501;49.926;8.404;2023-03-20T10:59:47;11.90;99.90
16767;DHT22;8501;49.926;8.404;2023-03-20T11:02:15;11.90;99.90
16767;DHT22;8501;49.926;8.404;2023-03-20T11:04:41;11.90;99.90
16767;DHT22;8501;49.926;8.404;2023-03-20T11:07:16;11.90;99.90
16767;DHT22;8501;49.926;8.404;2023-03-20T11:09:44;11.90;99.90
16767;DHT22;8501;49.926;8.404;2023-03-20T11:12:16;12.00;99.90
16767;DHT22;8501;49.926;8.404;2023-03-20T11:14:44;12.10;99.90
16767;DHT22;8501;49.926;8.404;2023-03-20T11:17:11;12.20;99.90
16767;DHT22;8501;49.926;8.404;2023-03-20T11:19:39;12.20;99.90
16767;DHT22;8501;49.926;8.404;2023-03-20T11:24:48;12.30;99.90
16767;DHT22;8501;49.926;8.404;2023-03-20T11:27:24;12.30;99.90
16767;DHT22;8501;49.926;8.404;2023-03-20T11:29:51;12.40;99.90
16767;DHT22;8501;49.926;8.404;2023-03-20T11:32:34;12.40;99.90
16767;DHT22;8501;49.926;8.404;2023-03-20T11:35:29;12.50;99.90
16767;DHT22;8501;49.926;8.404;2023-03-20T11:38:13;12.50;99.90
16767;DHT22;8501;49.926;8.404;2023-03-20T11:40:39;12.60;99.90
16767;DHT22;8501;49.926;8.404;2023-03-20T11:43:11;12.60;99.90
16767;DHT22;8501;49.926;8.404;2023-03-20T11:45:42;12.60;99.90
16767;DHT22;8501;49.926;8.404;2023-03-20T11:48:21;12.50;99.90
16767;DHT22;8501;49.926;8.404;2023-03-20T11:51:08;12.60;99.90
16767;DHT22;8501;49.926;8.404;2023-03-20T11:59:16;12.70;99.90
16767;DHT22;8501;49.926;8.404;2023-03-20T12:01:51;12.70;99.90
16767;DHT22;8501;49.926;8.404;2023-03-20T12:04:36;12.80;99.90
16767;DHT22;8501;49.926;8.404;2023-03-20T12:13:57;13.30;99.90
16767;DHT22;8501;49.926;8.404;2023-03-20T12:16:26;13.30;99.90
16767;DHT22;8501;49.926;8.404;2023-03-20T12:18:58;13.40;99.90
16767;DHT22;8501;49.926;8.404;2023-03-20T12:21:55;13.40;99.90
16767;DHT22;8501;49.926;8.404;2023-03-20T12:27:20;13.80;99.90
16767;DHT22;8501;49.926;8.404;2023-03-20T12:29:51;13.80;99.90
16767;DHT22;8501;49.926;8.404;2023-03-20T12:32:36;13.80;99.90
16767;DHT22;8501;49.926;8.404;2023-03-20T12:35:12;13.80;99.90
16767;DHT22;8501;49.926;8.404;2023-03-20T12:37:43;13.80;99.90
16767;DHT22;8501;49.926;8.404;2023-03-20T12:40:17;13.70;99.90
16767;DHT22;8501;49.926;8.404;2023-03-20T12:43:03;13.80;99.90
16767;DHT22;8501;49.926;8.404;2023-03-20T12:45:38;13.80;99.90
16767;DHT22;8501;49.926;8.404;2023-03-20T12:56:12;13.80;99.90
16767;DHT22;8501;49.926;8.404;2023-03-20T13:06:52;13.70;99.90
16767;DHT22;8501;49.926;8.404;2023-03-20T13:18:03;13.70;99.90
16767;DHT22;8501;49.926;8.404;2023-03-20T13:20:33;13.80;99.90
16767;DHT22;8501;49.926;8.404;2023-03-20T13:29:05;13.70;99.90
16767;DHT22;8501;49.926;8.404;2023-03-20T13:31:42;13.70;99.90
16767;DHT22;8501;49.926;8.404;2023-03-20T13:39:36;13.90;99.90
16767;DHT22;8501;49.926;8.404;2023-03-20T13:42:16;13.80;99.90
16767;DHT22;8501;49.926;8.404;2023-03-20T13:44:44;13.80;99.90
16767;DHT22;8501;49.926;8.404;2023-03-20T13:47:20;13.80;99.90
16767;DHT22;8501;49.926;8.404;2023-03-20T13:52:33;13.80;99.90
16767;DHT22;8501;49.926;8.404;2023-03-20T13:57:57;13.80;99.90
16767;DHT22;8501;49.926;8.404;2023-03-20T14:00:27;13.90;99.90
16767;DHT22;8501;49.926;8.404;2023-03-20T14:05:47;13.90;99.90
16767;DHT22;8501;49.926;8.404;2023-03-20T14:13:33;13.90;99.90
16767;DHT22;8501;49.926;8.404;2023-03-20T14:16:02;13.80;99.90
16767;DHT22;8501;49.926;8.404;2023-03-20T14:18:29;13.80;99.90
16767;DHT22;8501;49.926;8.404;2023-03-20T14:25:54;13.60;99.90
16767;DHT22;8501;49.926;8.404;2023-03-20T14:28:28;13.80;99.90
16767;DHT22;8501;49.926;8.404;2023-03-20T14:31:19;13.70;99.90
16767;DHT22;8501;49.926;8.404;2023-03-20T14:33:53;13.70;99.90
16767;DHT22;8501;49.926;8.404;2023-03-20T14:36:27;13.80;99.90
16767;DHT22;8501;49.926;8.404;2023-03-20T14:39:29;13.80;99.90
16767;DHT22;8501;49.926;8.404;2023-03-20T14:42:06;13.80;99.90
16767;DHT22;8501;49.926;8.404;2023-03-20T14:58:47;13.60;99.90
16767;DHT22;8501;49.926;8.404;2023-03-20T15:03:58;13.60;99.90
16767;DHT22;8501;49.926;8.404;2023-03-20T15:06:26;13.50;99.90
16767;DHT22;8501;49.926;8.404;2023-03-20T15:09:05;13.60;99.90
16767;DHT22;8501;49.926;8.404;2023-03-20T15:11:32;13.50;99.90
16767;DHT22;8501;49.926;8.404;2023-03-20T15:13:59;13.40;99.90
16767;DHT22;8501;49.926;8.404;2023-03-20T15:16:28;13.40;99.90
16767;DHT22;8501;49.926;8.404;2023-03-20T15:18:57;13.40;99.90
16767;DHT22;8501;49.926;8.404;2023-03-20T15:21:37;13.40;99.90
16767;DHT22;8501;49.926;8.404;2023-03-20T15:24:05;13.30;99.90
16767;DHT22;8501;49.926;8.404;2023-03-20T15:26:33;13.20;99.90
16767;DHT22;8501;49.926;8.404;2023-03-20T15:29:08;13.20;99.90
16767;DHT22;8501;49.926;8.404;2023-03-20T15:31:37;13.20;99.90
16767;DHT22;8501;49.926;8.404;2023-03-20T15:34:07;13.20;99.90
16767;DHT22;8501;49.926;8.404;2023-03-20T15:36:35;13.10;99.90
16767;DHT22;8501;49.926;8.404;2023-03-20T15:39:12;13.10;99.90
16767;DHT22;8501;49.926;8.404;2023-03-20T15:41:39;13.10;99.90
16767;DHT22;8501;49.926;8.404;2023-03-20T15:46:50;13.00;99.90
16767;DHT22;8501;49.926;8.404;2023-03-20T15:49:17;13.00;99.90
16767;DHT22;8501;49.926;8.404;2023-03-20T15:51:43;13.00;99.90
16767;DHT22;8501;49.926;8.404;2023-03-20T15:54:11;13.00;99.90
16767;DHT22;8501;49.926;8.404;2023-03-20T15:56:37;12.90;99.90
16767;DHT22;8501;49.926;8.404;2023-03-20T15:59:09;12.90;99.90
16767;DHT22;8501;49.926;8.404;2023-03-20T16:01:36;12.90;99.90
16767;DHT22;8501;49.926;8.404;2023-03-20T16:04:02;12.90;99.90
16767;DHT22;8501;49.926;8.404;2023-03-20T16:06:28;12.90;99.90
16767;DHT22;8501;49.926;8.404;2023-03-20T16:09:04;12.90;99.90
16767;DHT22;8501;49.926;8.404;2023-03-20T16:11:41;12.90;99.90
16767;DHT22;8501;49.926;8.404;2023-03-20T16:14:23;12.80;99.90
16767;DHT22;8501;49.926;8.404;2023-03-20T16:16:51;12.80;99.90
16767;DHT22;8501;49.926;8.404;2023-03-20T16:19:18;12.80;99.90
16767;DHT22;8501;49.926;8.404;2023-03-20T16:21:54;12.70;99.90
16767;DHT22;8501;49.926;8.404;2023-03-20T16:24:40;12.70;99.90
16767;DHT22;8501;49.926;8.404;2023-03-20T16:27:09;12.70;99.90
16767;DHT22;8501;49.926;8.404;2023-03-20T16:29:35;12.70;99.90
16767;DHT22;8501;49.926;8.404;2023-03-20T16:32:08;12.70;99.90
16767;DHT22;8501;49.926;8.404;2023-03-20T16:34:40;12.60;99.90
16767;DHT22;8501;49.926;8.404;2023-03-20T16:37:20;12.60;99.90
16767;DHT22;8501;49.926;8.404;2023-03-20T16:39:46;12.60;99.90
16767;DHT22;8501;49.926;8.404;2023-03-20T16:42:20;12.60;99.90
16767;DHT22;8501;49.926;8.404;2023-03-20T16:44:55;12.50;99.90
16767;DHT22;8501;49.926;8.404;2023-03-20T16:47:23;12.50;99.90
16767;DHT22;8501;49.926;8.404;2023-03-20T16:52:16;12.40;99.90
16767;DHT22;8501;49.926;8.404;2023-03-20T16:54:45;12.40;99.90
16767;DHT22;8501;49.926;8.404;2023-03-20T16:57:16;12.30;99.90
16767;DHT22;8501;49.926;8.404;2023-03-20T16:59:43;12.30;99.90
16767;DHT22;8501;49.926;8.404;2023-03-20T17:02:27;12.20;99.90
16767;DHT22;8501;49.926;8.404;2023-03-20T17:04:54;12.30;99.90
16767;DHT22;8501;49.926;8.404;2023-03-20T17:07:21;12.20;99.90
16767;DHT22;8501;49.926;8.404;2023-03-20T17:12:25;12.30;99.90
16767;DHT22;8501;49.926;8.404;2023-03-20T17:14:51;12.20;99.90
16767;DHT22;8501;49.926;8.404;2023-03-20T17:17:21;12.30;99.90
16767;DHT22;8501;49.926;8.404;2023-03-20T17:19:49;12.20;99.90
16767;DHT22;8501;49.926;8.404;2023-03-20T17:22:23;12.20;99.90
16767;DHT22;8501;49.926;8.404;2023-03-20T17:24:50;12.10;99.90
16767;DHT22;8501;49.926;8.404;2023-03-20T17:27:18;12.10;99.90
16767;DHT22;8501;49.926;8.404;2023-03-20T17:29:44;12.10;99.90
16767;DHT22;8501;49.926;8.404;2023-03-20T17:32:12;12.10;99.90
16767;DHT22;8501;49.926;8.404;2023-03-20T17:34:38;12.10;99.90
16767;DHT22;8501;49.926;8.404;2023-03-20T17:37:05;12.00;99.90
16767;DHT22;8501;49.926;8.404;2023-03-20T17:39:35;12.10;99.90
16767;DHT22;8501;49.926;8.404;2023-03-20T17:42:01;12.00;99.90
16767;DHT22;8501;49.926;8.404;2023-03-20T17:44:26;12.00;99.90
16767;DHT22;8501;49.926;8.404;2023-03-20T17:46:52;12.10;99.90
16767;DHT22;8501;49.926;8.404;2023-03-20T17:49:17;12.00;99.90
16767;DHT22;8501;49.926;8.404;2023-03-20T17:51:47;11.90;99.90
16767;DHT22;8501;49.926;8.404;2023-03-20T17:54:12;11.90;99.90
16767;DHT22;8501;49.926;8.404;2023-03-20T17:56:38;11.80;99.90
16767;DHT22;8501;49.926;8.404;2023-03-20T17:59:13;11.80;99.90
16767;DHT22;8501;49.926;8.404;2023-03-20T18:01:39;11.90;99.90
16767;DHT22;8501;49.926;8.404;2023-03-20T18:04:05;11.90;99.90
16767;DHT22;8501;49.926;8.404;2023-03-20T18:06:32;11.80;99.90
16767;DHT22;8501;49.926;8.404;2023-03-20T18:08:59;11.80;99.90
16767;DHT22;8501;49.926;8.404;2023-03-20T18:11:26;11.80;99.90
16767;DHT22;8501;49.926;8.404;2023-03-20T18:13:52;11.60;99.90
16767;DHT22;8501;49.926;8.404;2023-03-20T18:16:22;11.70;99.90
16767;DHT22;8501;49.926;8.404;2023-03-20T18:18:49;11.70;99.90
16767;DHT22;8501;49.926;8.404;2023-03-20T18:21:15;11.70;99.90
16767;DHT22;8501;49.926;8.404;2023-03-20T18:23:42;11.70;99.90
16767;DHT22;8501;49.926;8.404;2023-03-20T18:26:20;11.80;99.90
16767;DHT22;8501;49.926;8.404;2023-03-20T18:28:47;11.70;99.90
16767;DHT22;8501;49.926;8.404;2023-03-20T18:31:14;11.70;99.90
16767;DHT22;8501;49.926;8.404;2023-03-20T18:33:47;11.70;99.90
16767;DHT22;8501;49.926;8.404;2023-03-20T18:36:18;11.60;99.90
16767;DHT22;8501;49.926;8.404;2023-03-20T18:38:44;11.70;99.90
16767;DHT22;8501;49.926;8.404;2023-03-20T18:41:09;11.70;99.90
16767;DHT22;8501;49.926;8.404;2023-03-20T18:43:36;11.60;99.90
16767;DHT22;8501;49.926;8.404;2023-03-20T18:46:02;11.60;99.90
16767;DHT22;8501;49.926;8.404;2023-03-20T18:48:28;11.60;99.90